Latest Weather Observations for Macquarie Island*

IDT60801

Issued at 8:31 am EST Thursday 28 July 2016 (issued every 30 minutes, with the page automatically refreshed every 10 minutes)

About weather observations | Map of weather stations | Latest weather observations for ANT | Other Formats
Station Details ID: 300004 Name: MACQUARIE ISLAND Lat: -54.50 Lon: 158.94 Height: 6.0 m
Data from the previous 72 hours. | See also: Recent months at Macquarie Island*
Date/Time
EST
Temp
°C
App
Temp
°C
Dew
Point
°C
Rel
Hum
%
Delta-T
°C
Wind Press
QNH
hPa
Press
MSL
hPa
Rain since
9am
mm
Dir  Spd
km/h
Gust
km/h
Spd
kts
Gust
kts
28/08:30am 3.2 -8.4 1.7 90 0.6 WNW 52 63 28 34 969.5 - 2.8
28/08:00am 3.6 -8.3 2.0 89 0.6 WNW 54 67 29 36 969.0 - 2.6
28/07:30am 3.4 -8.2 1.8 89 0.6 WNW 52 65 28 35 968.6 - 2.4
28/07:05am 3.0 -7.9 1.2 88 0.7 WNW 48 67 26 36 968.5 - 2.4
28/07:00am 3.5 -8.1 1.9 89 0.6 WNW 52 65 28 35 968.2 - 2.4
28/06:30am 3.3 -8.7 1.7 89 0.6 WNW 54 65 29 35 968.0 - 2.4
28/06:00am 3.3 -8.7 1.7 89 0.6 WNW 54 72 29 39 967.6 967.9 2.4
28/05:59am 3.4 -8.2 1.8 89 0.6 WNW 52 72 28 39 967.7 - 2.4
28/05:30am 3.6 -8.4 1.8 88 0.7 WNW 54 61 29 33 967.4 - 2.4
28/05:00am 3.4 -8.6 1.3 86 0.8 WNW 54 69 29 37 967.0 - 2.4
28/04:30am 3.4 -8.6 1.3 86 0.8 WNW 54 67 29 36 966.9 - 2.4
28/04:00am 3.5 -9.1 1.4 86 0.8 WNW 57 69 31 37 966.6 - 2.4
28/03:30am 3.7 -7.9 1.6 86 0.8 NW 52 65 28 35 966.6 - 2.4
28/03:00am 3.7 -8.9 1.4 85 0.9 WNW 57 72 31 39 966.3 966.6 2.4
28/02:30am 3.7 -8.3 1.4 85 0.9 WNW 54 65 29 35 966.0 - 2.4
28/02:00am 3.7 -8.9 1.4 85 0.9 WNW 57 70 31 38 965.7 - 2.4
28/01:30am 3.7 -8.9 1.6 86 0.8 NW 57 70 31 38 965.5 - 2.4
28/01:00am 3.8 -9.1 1.7 86 0.8 NW 59 80 32 43 965.3 - 2.4
28/12:44am 3.9 -9.0 1.8 86 0.8 NW 59 78 32 42 964.9 - 2.4
28/12:30am 3.8 -8.7 1.7 86 0.8 NW 57 72 31 39 964.8 - 2.4
28/12:00am 3.6 -9.0 1.3 85 0.9 NW 57 69 31 37 964.5 964.8 2.4
 
Date/Time
EST
Temp
°C
App
Temp
°C
Dew
Point
°C
Rel
Hum
%
Delta-T
°C
Wind Press
QNH
hPa
Press
MSL
hPa
Rain since
9am
mm
Dir  Spd
km/h
Gust
km/h
Spd
kts
Gust
kts
27/11:30pm 3.7 -8.8 1.7 87 0.8 NW 57 69 31 37 964.5 - 2.4
27/11:00pm 3.7 -8.9 1.6 86 0.8 NW 57 70 31 38 964.3 - 2.4
27/10:30pm 3.6 -8.0 1.8 88 0.7 NW 52 65 28 35 964.5 - 2.4
27/10:00pm 3.5 -8.9 1.7 88 0.7 NW 56 65 30 35 964.5 - 2.4
27/09:30pm 3.6 -7.9 2.1 90 0.6 NW 52 65 28 35 964.7 - 2.4
27/09:00pm 4.0 -7.5 2.2 88 0.7 NW 52 61 28 33 964.8 965.1 2.4
27/08:30pm 3.9 -7.6 2.1 88 0.7 NW 52 61 28 33 964.5 - 2.4
27/08:00pm 4.1 -7.1 1.6 84 1.0 NW 50 67 27 36 964.2 - 2.4
27/07:30pm 4.1 -7.1 2.1 87 0.8 NW 50 61 27 33 964.3 - 2.4
27/07:00pm 4.0 -7.9 2.4 89 0.6 NW 54 65 29 35 964.2 - 2.4
27/06:30pm 4.0 -7.1 2.7 91 0.5 NW 50 67 27 36 964.2 - 2.4
27/06:13pm 4.0 -6.4 2.2 88 0.7 NW 46 67 25 36 964.2 - 2.0
27/06:00pm 4.4 -6.3 2.4 87 0.8 NW 48 59 26 32 964.2 964.5 2.0
27/05:30pm 4.4 -6.3 2.4 87 0.8 NW 48 59 26 32 964.2 - 2.0
27/05:00pm 4.2 -5.5 2.9 91 0.5 NW 43 56 23 30 964.0 - 2.0
27/04:30pm 4.4 -5.2 3.4 93 0.4 NW 43 56 23 30 963.8 - 2.0
27/04:00pm 4.4 -5.2 3.5 94 0.4 NNW 43 52 23 28 963.6 - 1.8
27/03:30pm 4.6 -5.1 3.1 90 0.6 NW 43 56 23 30 963.3 - 1.8
27/03:00pm 4.7 -3.4 3.5 92 0.5 NNW 35 46 19 25 963.3 963.6 1.8
27/02:30pm 4.8 -3.3 3.5 91 0.5 NNW 35 44 19 24 963.3 - 1.8
27/02:00pm 4.6 -2.9 3.4 92 0.5 N 32 39 17 21 963.6 - 1.8
27/01:30pm 4.4 -1.6 3.2 92 0.5 N 24 39 13 21 964.1 - 1.2
27/01:00pm 4.4 -2.8 3.2 92 0.5 N 30 43 16 23 964.5 - 0.6
27/12:35pm 4.2 -2.6 3.0 92 0.5 N 28 46 15 25 964.7 - 0.6
27/12:30pm 4.2 -3.0 3.0 92 0.5 N 30 46 16 25 964.7 - 0.6
27/12:20pm 4.3 -2.9 3.1 92 0.5 N 30 48 16 26 964.8 - 0.6
27/12:00pm 4.4 -3.2 2.9 90 0.6 N 32 43 17 23 965.2 965.5 0.6
27/11:30am 4.5 -0.9 2.7 88 0.7 N 20 39 11 21 965.7 - 0.4
27/11:00am 4.5 0.4 2.4 86 0.8 N 13 28 7 15 966.1 - 0.2
27/10:30am 4.7 0.3 2.6 86 0.8 N 15 24 8 13 966.4 - 0.2
27/10:00am 4.7 -0.2 2.1 83 1.0 NW 17 26 9 14 967.0 - 0.0
27/09:30am 4.5 0.0 2.0 84 1.0 N 15 30 8 16 967.3 - 0.0
27/09:00am 4.4 -4.6 2.3 86 0.9 N 39 59 21 32 967.8 968.1 8.4
27/08:30am 4.3 -3.1 1.8 84 1.0 N 30 50 16 27 968.5 - 8.4
27/08:00am 4.4 -4.3 1.9 84 1.0 N 37 63 20 34 969.1 - 8.4
27/07:30am 4.7 -2.3 1.7 81 1.2 N 28 52 15 28 969.6 - 8.4
27/07:00am 4.6 -0.8 1.5 80 1.2 NNE 19 39 10 21 969.9 - 8.4
27/06:45am 4.6 -2.9 1.5 80 1.2 N 30 59 16 32 970.1 - 8.4
27/06:30am 4.5 -1.0 1.9 83 1.0 N 20 39 11 21 970.4 - 8.4
27/06:00am 4.4 -1.9 1.8 83 1.1 N 24 44 13 24 970.8 971.1 8.4
27/05:37am 4.6 -3.4 1.8 82 1.1 N 33 52 18 28 970.8 - 8.4
27/05:30am 4.7 -4.1 1.6 80 1.2 N 37 50 20 27 970.8 - 8.4
27/05:00am 4.7 -3.6 2.1 83 1.0 N 35 50 19 27 971.3 - 8.4
27/04:30am 4.9 -3.0 2.1 82 1.1 N 33 46 18 25 971.6 - 8.4
27/04:00am 4.8 -2.2 2.2 83 1.0 N 28 33 15 18 971.9 - 8.4
27/03:30am 4.8 -2.5 2.2 83 1.0 N 30 39 16 21 972.1 - 8.4
27/03:00am 5.2 -2.6 2.6 83 1.1 N 33 46 18 25 972.5 972.8 8.4
27/02:30am 5.5 -2.7 2.8 83 1.1 N 35 41 19 22 972.7 - 8.4
27/02:00am 5.5 -2.3 2.8 83 1.1 N 33 39 18 21 973.1 - 8.4
27/01:30am 5.7 -2.0 3.5 86 0.9 N 33 43 18 23 973.4 - 8.4
27/01:00am 5.9 -2.5 3.9 87 0.8 NNE 37 48 20 26 973.7 - 8.4
27/12:31am 6.0 -1.6 4.0 87 0.8 N 33 52 18 28 973.8 - 8.4
27/12:30am 6.1 -1.8 4.1 87 0.9 N 35 52 19 28 973.8 - 8.4
27/12:00am 5.6 -0.3 3.8 88 0.8 NNE 24 44 13 24 974.1 974.4 8.4
 
Date/Time
EST
Temp
°C
App
Temp
°C
Dew
Point
°C
Rel
Hum
%
Delta-T
°C
Wind Press
QNH
hPa
Press
MSL
hPa
Rain since
9am
mm
Dir  Spd
km/h
Gust
km/h
Spd
kts
Gust
kts
26/11:30pm 5.8 0.8 4.6 92 0.5 N 20 43 11 23 974.5 - 8.4
26/11:00pm 5.8 2.1 4.6 92 0.5 N 13 24 7 13 974.9 - 8.4
26/10:30pm 5.4 1.3 4.2 92 0.5 N 15 28 8 15 975.2 - 8.4
26/10:00pm 5.7 1.3 4.5 92 0.5 NNE 17 41 9 22 975.5 - 8.4
26/09:30pm 5.5 2.2 4.3 92 0.5 N 11 28 6 15 976.1 - 8.4
26/09:00pm 5.4 0.3 4.2 92 0.5 NNW 20 44 11 24 976.4 976.7 7.0
26/08:30pm 5.6 -0.2 4.4 92 0.5 ESE 24 54 13 29 976.9 - 5.2
26/08:00pm 5.5 -2.4 4.5 93 0.4 E 35 67 19 36 977.4 - 3.2
26/07:57pm 5.4 -2.1 4.4 93 0.4 ESE 33 67 18 36 977.4 - 3.0
26/07:30pm 5.4 -1.2 4.2 92 0.5 E 28 46 15 25 978.1 - 2.0
26/07:00pm 5.4 -2.0 4.2 92 0.5 E 32 54 17 29 979.0 - 1.2
26/06:30pm 5.3 -1.7 4.1 92 0.5 E 30 50 16 27 979.7 - 0.8
26/06:00pm 5.2 -2.2 4.0 92 0.5 ESE 32 52 17 28 980.2 980.5 0.8
26/05:30pm 5.1 -1.9 3.9 92 0.5 ESE 30 54 16 29 981.0 - 0.8
26/05:00pm 4.9 -2.2 3.7 92 0.5 E 30 50 16 27 981.8 - 0.4
26/04:30pm 4.9 -2.2 3.7 92 0.5 ESE 30 48 16 26 982.5 - 0.2
26/04:11pm 4.7 -2.0 3.5 92 0.5 E 28 46 15 25 983.1 - 0.0
26/04:00pm 4.7 -1.3 3.4 91 0.5 E 24 39 13 21 983.2 - 0.0
26/03:30pm 4.5 -1.5 3.2 91 0.5 E 24 39 13 21 983.9 - 0.0
26/03:00pm 4.5 -2.8 2.7 88 0.7 E 30 48 16 26 984.6 984.9 0.0
26/02:30pm 4.2 -2.0 2.2 87 0.8 E 24 44 13 24 985.1 - 0.0
26/02:14pm 4.2 -3.6 1.9 85 0.9 E 32 50 17 27 985.5 - 0.0
26/02:00pm 4.1 -2.2 1.8 85 0.9 E 24 41 13 22 985.7 - 0.0
26/01:30pm 3.9 -2.4 1.4 84 1.0 E 24 35 13 19 986.1 - 0.0
26/01:00pm 3.6 -2.8 1.0 83 1.0 E 24 39 13 21 986.7 - 0.0
26/12:30pm 3.5 -3.7 0.6 81 1.1 E 28 43 15 23 987.3 - 0.0
26/12:17pm 3.4 -4.2 0.3 80 1.2 E 30 50 16 27 987.5 - 0.0
26/12:00pm 3.3 -3.2 0.2 80 1.2 ESE 24 35 13 19 987.6 987.9 0.0
26/11:30am 3.2 -4.5 -0.3 78 1.3 E 30 41 16 22 988.6 - 0.0
26/11:00am 3.3 -3.7 -0.2 78 1.3 E 26 35 14 19 989.0 - 0.0
26/10:30am 3.1 -2.5 0.0 80 1.2 E 19 30 10 16 989.2 - 0.0
26/10:00am 2.9 -3.3 -0.4 79 1.2 ESE 22 30 12 16 989.6 - 0.0
26/09:30am 2.9 -2.4 -0.7 77 1.3 E 17 26 9 14 990.0 - 0.0
26/09:00am 2.8 -2.9 -1.0 76 1.4 E 19 24 10 13 990.1 990.4 1.6
26/08:30am 2.7 -1.6 -1.3 75 1.4 W 11 19 6 10 990.3 - 1.6
26/08:00am 2.5 -0.7 -0.8 79 1.2 W 6 13 3 7 990.4 - 1.6
26/07:30am 1.8 -0.3 -0.6 84 0.9 CALM 0 0 0 0 990.4 - 1.6
26/07:00am 1.7 -0.4 -0.5 85 0.8 CALM 0 0 0 0 990.0 - 1.6
26/06:30am 1.8 -0.2 -0.4 85 0.8 CALM 0 0 0 0 989.8 - 1.6
26/06:00am 2.3 0.3 -0.4 82 1.0 CALM 0 0 0 0 990.3 990.6 1.6
26/05:30am 2.8 0.7 -0.5 79 1.2 CALM 0 0 0 0 990.3 - 1.6
26/05:00am 3.0 -2.3 -0.5 78 1.3 W 17 32 9 17 990.5 - 1.6
26/04:30am 2.8 -2.5 -0.5 79 1.2 W 17 22 9 12 989.8 - 1.6
26/04:00am 2.9 -2.7 -0.2 80 1.1 W 19 26 10 14 989.5 - 1.6
26/03:30am 2.9 -1.9 0.1 82 1.0 W 15 20 8 11 989.1 - 1.6
26/03:00am 3.0 1.0 0.1 81 1.1 CALM 0 6 0 3 989.2 989.5 1.6
26/02:30am 3.2 -2.3 0.4 82 1.1 W 19 30 10 16 989.1 - 1.6
26/02:00am 3.2 -3.3 0.4 82 1.1 W 24 37 13 20 988.7 - 1.6
26/01:30am 3.5 -4.4 1.1 84 0.9 W 32 41 17 22 988.3 - 1.6
26/01:00am 3.8 -3.5 2.5 91 0.5 W 30 35 16 19 988.0 - 1.6
26/12:30am 3.8 -3.1 2.6 92 0.5 W 28 37 15 20 987.6 - 1.6
26/12:00am 3.8 -2.3 2.9 94 0.4 WNW 24 30 13 16 987.5 987.8 1.6
 
Date/Time
EST
Temp
°C
App
Temp
°C
Dew
Point
°C
Rel
Hum
%
Delta-T
°C
Wind Press
QNH
hPa
Press
MSL
hPa
Rain since
9am
mm
Dir  Spd
km/h
Gust
km/h
Spd
kts
Gust
kts
25/11:30pm 3.5 -3.4 2.6 94 0.4 WNW 28 35 15 19 987.2 - 1.6
25/11:00pm 3.5 -5.1 2.5 93 0.4 WNW 37 46 20 25 987.1 - 1.6
25/10:30pm 3.6 -4.6 2.7 94 0.4 NW 35 44 19 24 986.9 - 1.6
25/10:00pm 3.5 -5.5 2.5 93 0.4 NW 39 46 21 25 986.8 - 1.4
25/09:36pm 4.2 -7.6 2.7 90 0.6 NNW 54 63 29 34 986.3 - 0.4
25/09:33pm 5.2 -3.2 3.9 91 0.5 N 37 61 20 33 986.3 - 0.0
25/09:30pm 5.2 -2.8 3.9 91 0.5 N 35 44 19 24 986.3 - 0.0
25/09:00pm 5.0 -2.5 3.7 91 0.6 N 32 37 17 20 986.9 987.2 0.0
25/08:30pm 5.0 -2.5 3.7 91 0.5 N 32 37 17 20 987.3 - 0.0
25/08:00pm 5.1 -2.9 3.6 90 0.6 N 35 41 19 22 987.6 - 0.0
25/07:30pm 5.0 -3.1 3.3 89 0.7 N 35 41 19 22 987.8 - 0.0
25/07:00pm 5.1 -3.0 3.1 87 0.8 NNW 35 44 19 24 988.0 - 0.0
25/06:30pm 5.2 -3.0 2.9 85 0.9 NNW 35 43 19 23 988.3 - 0.0
25/06:00pm 5.0 -3.2 2.7 85 0.9 NNW 35 39 19 21 988.5 988.8 0.0
25/05:30pm 5.0 -2.8 2.9 86 0.9 NNW 33 37 18 20 988.8 - 0.0
25/05:00pm 4.9 -2.7 2.8 86 0.9 NNW 32 39 17 21 989.1 - 0.0
25/04:30pm 4.8 -2.8 3.0 88 0.7 NNW 32 37 17 20 989.6 - 0.0
25/04:00pm 4.8 -2.8 3.0 88 0.7 NNW 32 35 17 19 989.7 - 0.0
25/03:30pm 4.7 -2.9 2.9 88 0.7 NNW 32 35 17 19 989.7 - 0.0
25/03:00pm 4.7 -2.5 2.9 88 0.7 NNW 30 33 16 18 989.9 990.2 0.0
25/02:30pm 4.6 -2.3 2.8 88 0.7 NNW 28 32 15 17 990.1 - 0.0
25/02:00pm 5.0 -2.1 3.3 89 0.7 NNW 30 35 16 19 990.1 - 0.0
25/01:30pm 5.0 -1.8 3.2 88 0.7 NNW 28 32 15 17 990.2 - 0.0
25/01:00pm 4.7 -2.1 2.9 88 0.7 NNW 28 32 15 17 990.4 - 0.0
25/12:30pm 4.7 -1.8 2.7 87 0.8 NNW 26 30 14 16 990.6 - 0.0
25/12:00pm 4.9 -0.5 2.6 85 0.9 NW 20 24 11 13 990.7 991.0 0.0
25/11:30am 4.7 -1.9 2.1 83 1.0 NW 26 30 14 16 990.9 - 0.0
25/11:00am 4.7 -1.5 2.1 83 1.0 NW 24 28 13 15 991.1 - 0.0
25/10:30am 4.4 -2.7 1.3 80 1.2 WNW 28 35 15 19 991.3 - 0.0
25/10:00am 4.2 -4.3 0.7 78 1.3 WNW 35 41 19 22 991.3 - 0.0
25/09:30am 3.6 -3.6 0.5 80 1.2 WNW 28 39 15 21 991.3 - 0.0
25/09:00am 3.5 -5.0 0.9 83 1.0 WNW 35 44 19 24 991.2 991.5 1.0

Other Formats:

Comma delimited format used in spreadsheet applications
http://www.bom.gov.au/fwo/IDT60803/IDT60803.94998.axf

JavaScript Object Notation format (JSON) in row-major order
http://www.bom.gov.au/fwo/IDT60803/IDT60803.94998.json